sensor_id;sensor_type;location;lat;lon;timestamp;pressure;altitude;pressure_sealevel;temperature;humidity
50977;BME280;36992;48.200;12.418;2022-07-12T00:00:39;97328.09;;;21.50;44.11
50977;BME280;36992;48.200;12.418;2022-07-12T00:03:06;97330.84;;;21.50;44.54
50977;BME280;36992;48.200;12.418;2022-07-12T00:05:32;97330.06;;;21.49;44.35
50977;BME280;36992;48.200;12.418;2022-07-12T00:07:59;97328.44;;;21.48;43.96
50977;BME280;36992;48.200;12.418;2022-07-12T00:10:25;97334.72;;;21.49;44.07
50977;BME280;36992;48.200;12.418;2022-07-12T00:12:53;97328.09;;;21.50;44.35
50977;BME280;36992;48.200;12.418;2022-07-12T00:15:20;97325.34;;;21.50;43.56
50977;BME280;36992;48.200;12.418;2022-07-12T00:17:47;97329.25;;;21.49;44.07
50977;BME280;36992;48.200;12.418;2022-07-12T00:20:13;97324.56;;;21.49;43.34
50977;BME280;36992;48.200;12.418;2022-07-12T00:22:40;97325.34;;;21.50;44.47
50977;BME280;36992;48.200;12.418;2022-07-12T00:25:07;97324.56;;;21.49;44.66
50977;BME280;36992;48.200;12.418;2022-07-12T00:27:34;97325.34;;;21.50;45.04
50977;BME280;36992;48.200;12.418;2022-07-12T00:30:02;97318.28;;;21.49;44.51
50977;BME280;36992;48.200;12.418;2022-07-12T00:32:29;97317.38;;;21.45;43.61
50977;BME280;36992;48.200;12.418;2022-07-12T00:34:55;97316.94;;;21.42;43.94
50977;BME280;36992;48.200;12.418;2022-07-12T00:37:22;97323.56;;;21.41;45.78
50977;BME280;36992;48.200;12.418;2022-07-12T00:39:49;97324.25;;;21.38;44.30
50977;BME280;36992;48.200;12.418;2022-07-12T00:42:15;97324.16;;;21.35;44.61
50977;BME280;36992;48.200;12.418;2022-07-12T00:44:42;97320.97;;;21.33;44.46
50977;BME280;36992;48.200;12.418;2022-07-12T00:47:20;97321.06;;;21.36;44.31
50977;BME280;36992;48.200;12.418;2022-07-12T00:49:48;97320.06;;;21.28;44.72
50977;BME280;36992;48.200;12.418;2022-07-12T00:52:14;97323.63;;;21.29;45.26
50977;BME280;36992;48.200;12.418;2022-07-12T00:54:41;97318.91;;;21.29;45.61
50977;BME280;36992;48.200;12.418;2022-07-12T00:57:08;97310.69;;;21.29;44.60
50977;BME280;36992;48.200;12.418;2022-07-12T00:59:34;97316.97;;;21.30;45.23
50977;BME280;36992;48.200;12.418;2022-07-12T01:02:01;97315.84;;;21.31;45.42
50977;BME280;36992;48.200;12.418;2022-07-12T01:04:29;97316.28;;;21.33;44.59
50977;BME280;36992;48.200;12.418;2022-07-12T01:06:56;97320.16;;;21.32;45.44
50977;BME280;36992;48.200;12.418;2022-07-12T01:09:22;97315.50;;;21.33;44.87
50977;BME280;36992;48.200;12.418;2022-07-12T01:11:49;97328.38;;;21.32;45.02
50977;BME280;36992;48.200;12.418;2022-07-12T01:14:15;97319.00;;;21.33;44.67
50977;BME280;36992;48.200;12.418;2022-07-12T01:16:42;97312.41;;;21.34;45.05
50977;BME280;36992;48.200;12.418;2022-07-12T01:19:12;97316.03;;;21.38;45.01
50977;BME280;36992;48.200;12.418;2022-07-12T01:21:46;97318.00;;;21.38;44.62
50977;BME280;36992;48.200;12.418;2022-07-12T01:24:15;97319.91;;;21.37;45.08
50977;BME280;36992;48.200;12.418;2022-07-12T01:26:42;97317.44;;;21.32;44.61
50977;BME280;36992;48.200;12.418;2022-07-12T01:29:09;97319.38;;;21.32;44.43
50977;BME280;36992;48.200;12.418;2022-07-12T01:31:36;97319.38;;;21.32;45.08
50977;BME280;36992;48.200;12.418;2022-07-12T01:34:03;97315.84;;;21.31;45.25
50977;BME280;36992;48.200;12.418;2022-07-12T01:36:31;97318.56;;;21.31;44.89
50977;BME280;36992;48.200;12.418;2022-07-12T01:38:57;97325.19;;;21.30;46.06
50977;BME280;36992;48.200;12.418;2022-07-12T01:41:25;97322.13;;;21.32;45.42
50977;BME280;36992;48.200;12.418;2022-07-12T01:43:52;97323.97;;;21.27;46.38
50977;BME280;36992;48.200;12.418;2022-07-12T01:46:19;97320.31;;;21.23;46.42
50977;BME280;36992;48.200;12.418;2022-07-12T01:48:46;97318.28;;;21.20;45.81
50977;BME280;36992;48.200;12.418;2022-07-12T01:51:13;97317.38;;;21.16;46.32
50977;BME280;36992;48.200;12.418;2022-07-12T01:53:39;97312.94;;;21.11;46.47
50977;BME280;36992;48.200;12.418;2022-07-12T01:56:06;97315.25;;;21.09;46.95
50977;BME280;36992;48.200;12.418;2022-07-12T01:58:35;97320.25;;;21.07;46.93
50977;BME280;36992;48.200;12.418;2022-07-12T02:01:02;97316.16;;;21.01;46.31
50977;BME280;36992;48.200;12.418;2022-07-12T02:03:29;97316.88;;;20.98;46.37
50977;BME280;36992;48.200;12.418;2022-07-12T02:05:55;97314.47;;;20.96;46.73
50977;BME280;36992;48.200;12.418;2022-07-12T02:08:22;97315.16;;;20.93;46.78
50977;BME280;36992;48.200;12.418;2022-07-12T02:10:48;97307.28;;;20.92;47.54
50977;BME280;36992;48.200;12.418;2022-07-12T02:13:15;97311.19;;;20.91;47.28
50977;BME280;36992;48.200;12.418;2022-07-12T02:15:43;97310.38;;;20.90;45.95
50977;BME280;36992;48.200;12.418;2022-07-12T02:18:09;97311.84;;;20.87;46.63
50977;BME280;36992;48.200;12.418;2022-07-12T02:20:35;97310.25;;;20.86;46.95
50977;BME280;36992;48.200;12.418;2022-07-12T02:23:02;97313.00;;;20.86;47.40
50977;BME280;36992;48.200;12.418;2022-07-12T02:25:28;97312.56;;;20.84;46.29
50977;BME280;36992;48.200;12.418;2022-07-12T02:27:55;97308.69;;;20.85;47.43
50977;BME280;36992;48.200;12.418;2022-07-12T02:30:21;97312.56;;;20.84;46.70
50977;BME280;36992;48.200;12.418;2022-07-12T02:32:49;97311.41;;;20.85;46.68
50977;BME280;36992;48.200;12.418;2022-07-12T02:35:16;97307.41;;;20.83;47.25
50977;BME280;36992;48.200;12.418;2022-07-12T02:37:42;97302.25;;;20.81;47.08
50977;BME280;36992;48.200;12.418;2022-07-12T02:40:09;97305.34;;;20.80;47.12
50977;BME280;36992;48.200;12.418;2022-07-12T02:42:53;97302.97;;;20.78;47.40
50977;BME280;36992;48.200;12.418;2022-07-12T02:45:20;97304.09;;;20.77;47.57
50977;BME280;36992;48.200;12.418;2022-07-12T02:47:46;97300.91;;;20.75;47.49
50977;BME280;36992;48.200;12.418;2022-07-12T02:50:14;97310.69;;;20.76;47.78
50977;BME280;36992;48.200;12.418;2022-07-12T02:52:41;97301.25;;;20.73;47.36
50977;BME280;36992;48.200;12.418;2022-07-12T02:55:08;97304.34;;;20.72;47.54
50977;BME280;36992;48.200;12.418;2022-07-12T02:57:34;97311.41;;;20.73;46.93
50977;BME280;36992;48.200;12.418;2022-07-12T03:00:01;97309.81;;;20.72;46.78
50977;BME280;36992;48.200;12.418;2022-07-12T03:02:27;97311.41;;;20.73;47.23
50977;BME280;36992;48.200;12.418;2022-07-12T03:04:54;97316.06;;;20.72;47.25
50977;BME280;36992;48.200;12.418;2022-07-12T03:07:22;97314.59;;;20.75;46.76
50977;BME280;36992;48.200;12.418;2022-07-12T03:09:48;97317.31;;;20.75;47.65
50977;BME280;36992;48.200;12.418;2022-07-12T03:12:15;97318.91;;;20.76;47.81
50977;BME280;36992;48.200;12.418;2022-07-12T03:14:41;97319.72;;;20.76;47.87
50977;BME280;36992;48.200;12.418;2022-07-12T03:17:08;97324.38;;;20.76;47.46
50977;BME280;36992;48.200;12.418;2022-07-12T03:19:35;97321.66;;;20.76;47.64
50977;BME280;36992;48.200;12.418;2022-07-12T03:22:01;97327.13;;;20.76;47.59
50977;BME280;36992;48.200;12.418;2022-07-12T03:24:29;97323.28;;;20.77;47.15
50977;BME280;36992;48.200;12.418;2022-07-12T03:26:55;97323.59;;;20.75;46.01
50977;BME280;36992;48.200;12.418;2022-07-12T03:29:22;97326.00;;;20.77;46.47
50977;BME280;36992;48.200;12.418;2022-07-12T03:31:48;97331.94;;;20.79;46.76
50977;BME280;36992;48.200;12.418;2022-07-12T03:34:15;97329.19;;;20.79;47.78
50977;BME280;36992;48.200;12.418;2022-07-12T03:36:41;97331.59;;;20.81;46.85
50977;BME280;36992;48.200;12.418;2022-07-12T03:39:08;97330.44;;;20.82;47.20
50977;BME280;36992;48.200;12.418;2022-07-12T03:41:36;97329.00;;;20.84;47.26
50977;BME280;36992;48.200;12.418;2022-07-12T03:44:03;97329.63;;;20.81;48.00
50977;BME280;36992;48.200;12.418;2022-07-12T03:46:31;97339.44;;;20.82;47.37
50977;BME280;36992;48.200;12.418;2022-07-12T03:48:58;97332.72;;;20.80;47.20
50977;BME280;36992;48.200;12.418;2022-07-12T03:51:24;97339.00;;;20.80;47.89
50977;BME280;36992;48.200;12.418;2022-07-12T03:53:51;97342.88;;;20.79;47.89
50977;BME280;36992;48.200;12.418;2022-07-12T03:56:17;97341.28;;;20.78;47.90
50977;BME280;36992;48.200;12.418;2022-07-12T03:58:59;97335.81;;;20.78;47.86
50977;BME280;36992;48.200;12.418;2022-07-12T04:01:26;97334.22;;;20.77;46.54
50977;BME280;36992;48.200;12.418;2022-07-12T04:03:52;97348.25;;;20.75;47.04
50977;BME280;36992;48.200;12.418;2022-07-12T04:06:18;97340.81;;;20.76;47.56
50977;BME280;36992;48.200;12.418;2022-07-12T04:08:45;97337.28;;;20.75;47.97
50977;BME280;36992;48.200;12.418;2022-07-12T04:11:11;97335.69;;;20.74;47.26
50977;BME280;36992;48.200;12.418;2022-07-12T04:13:38;97341.97;;;20.75;47.49
50977;BME280;36992;48.200;12.418;2022-07-12T04:16:06;97347.44;;;20.75;47.29
50977;BME280;36992;48.200;12.418;2022-07-12T04:18:33;97353.25;;;20.73;48.77
50977;BME280;36992;48.200;12.418;2022-07-12T04:20:59;97353.63;;;20.72;48.16
50977;BME280;36992;48.200;12.418;2022-07-12T04:23:26;97353.13;;;20.70;48.55
50977;BME280;36992;48.200;12.418;2022-07-12T04:25:52;97353.84;;;20.67;47.56
50977;BME280;36992;48.200;12.418;2022-07-12T04:28:19;97352.25;;;20.66;48.12
50977;BME280;36992;48.200;12.418;2022-07-12T04:30:45;97355.00;;;20.66;47.81
50977;BME280;36992;48.200;12.418;2022-07-12T04:33:13;97356.56;;;20.67;47.77
50977;BME280;36992;48.200;12.418;2022-07-12T04:35:40;97360.47;;;20.66;48.00
50977;BME280;36992;48.200;12.418;2022-07-12T04:38:07;97373.00;;;20.67;47.39
50977;BME280;36992;48.200;12.418;2022-07-12T04:40:33;97364.44;;;20.68;49.04
50977;BME280;36992;48.200;12.418;2022-07-12T04:43:00;97370.72;;;20.69;49.12
50977;BME280;36992;48.200;12.418;2022-07-12T04:45:26;97368.78;;;20.69;47.73
50977;BME280;36992;48.200;12.418;2022-07-12T04:47:53;97373.91;;;20.71;47.24
50977;BME280;36992;48.200;12.418;2022-07-12T04:50:20;97374.38;;;20.73;47.03
50977;BME280;36992;48.200;12.418;2022-07-12T04:52:47;97370.47;;;20.74;48.30
50977;BME280;36992;48.200;12.418;2022-07-12T04:55:13;97377.53;;;20.75;48.63
50977;BME280;36992;48.200;12.418;2022-07-12T04:57:40;97367.84;;;20.78;48.58
50977;BME280;36992;48.200;12.418;2022-07-12T05:00:07;97368.66;;;20.78;48.35
50977;BME280;36992;48.200;12.418;2022-07-12T05:02:34;97374.59;;;20.80;47.48
50977;BME280;36992;48.200;12.418;2022-07-12T05:05:00;97374.25;;;20.82;47.45
50977;BME280;36992;48.200;12.418;2022-07-12T05:07:28;97376.66;;;20.83;46.74
50977;BME280;36992;48.200;12.418;2022-07-12T05:09:54;97366.81;;;20.82;47.30
50977;BME280;36992;48.200;12.418;2022-07-12T05:12:21;97373.44;;;20.81;47.48
50977;BME280;36992;48.200;12.418;2022-07-12T05:14:47;97376.16;;;20.81;46.34
50977;BME280;36992;48.200;12.418;2022-07-12T05:17:14;97373.00;;;20.79;47.37
50977;BME280;36992;48.200;12.418;2022-07-12T05:19:40;97374.13;;;20.78;47.59
50977;BME280;36992;48.200;12.418;2022-07-12T05:22:07;97366.72;;;20.79;46.99
50977;BME280;36992;48.200;12.418;2022-07-12T05:24:35;97371.03;;;20.80;47.07
50977;BME280;36992;48.200;12.418;2022-07-12T05:27:01;97372.19;;;20.79;47.14
50977;BME280;36992;48.200;12.418;2022-07-12T05:29:28;97383.50;;;20.77;47.65
50977;BME280;36992;48.200;12.418;2022-07-12T05:31:55;97373.31;;;20.78;47.22
50977;BME280;36992;48.200;12.418;2022-07-12T05:34:21;97381.88;;;20.76;47.20
50977;BME280;36992;48.200;12.418;2022-07-12T05:36:47;97384.63;;;20.76;47.26
50977;BME280;36992;48.200;12.418;2022-07-12T05:39:14;97381.44;;;20.74;47.35
50977;BME280;36992;48.200;12.418;2022-07-12T05:41:42;97383.34;;;20.73;47.29
50977;BME280;36992;48.200;12.418;2022-07-12T05:44:09;97394.69;;;20.72;47.25
50977;BME280;36992;48.200;12.418;2022-07-12T05:46:36;97394.69;;;20.72;47.42
50977;BME280;36992;48.200;12.418;2022-07-12T05:49:03;97388.06;;;20.73;47.21
50977;BME280;36992;48.200;12.418;2022-07-12T05:51:29;97390.09;;;20.76;47.26
50977;BME280;36992;48.200;12.418;2022-07-12T05:54:13;97396.38;;;20.76;47.27
50977;BME280;36992;48.200;12.418;2022-07-12T05:56:41;97399.22;;;20.80;47.81
50977;BME280;36992;48.200;12.418;2022-07-12T05:59:08;97394.56;;;20.81;47.01
50977;BME280;36992;48.200;12.418;2022-07-12T06:01:35;97389.53;;;20.83;47.34
50977;BME280;36992;48.200;12.418;2022-07-12T06:04:01;97396.94;;;20.82;46.87
50977;BME280;36992;48.200;12.418;2022-07-12T06:06:28;97403.69;;;20.85;47.28
50977;BME280;36992;48.200;12.418;2022-07-12T06:08:54;97405.66;;;20.84;47.35
50977;BME280;36992;48.200;12.418;2022-07-12T06:11:21;97405.66;;;20.84;46.97
50977;BME280;36992;48.200;12.418;2022-07-12T06:13:48;97406.09;;;20.86;46.80
50977;BME280;36992;48.200;12.418;2022-07-12T06:16:15;97411.91;;;20.85;46.68
50977;BME280;36992;48.200;12.418;2022-07-12T06:18:42;97405.66;;;20.84;46.77
50977;BME280;36992;48.200;12.418;2022-07-12T06:21:09;97411.22;;;20.88;46.86
50977;BME280;36992;48.200;12.418;2022-07-12T06:23:35;97410.91;;;20.89;46.53
50977;BME280;36992;48.200;12.418;2022-07-12T06:26:02;97416.81;;;20.92;46.90
50977;BME280;36992;48.200;12.418;2022-07-12T06:28:28;97415.34;;;20.94;46.00
50977;BME280;36992;48.200;12.418;2022-07-12T06:30:56;97414.63;;;20.97;46.49
50977;BME280;36992;48.200;12.418;2022-07-12T06:33:22;97418.84;;;20.95;46.10
50977;BME280;36992;48.200;12.418;2022-07-12T06:35:49;97416.59;;;20.97;46.57
50977;BME280;36992;48.200;12.418;2022-07-12T06:38:15;97409.63;;;20.99;46.19
50977;BME280;36992;48.200;12.418;2022-07-12T06:40:42;97417.03;;;20.99;45.80
50977;BME280;36992;48.200;12.418;2022-07-12T06:43:09;97422.19;;;21.00;46.03
50977;BME280;36992;48.200;12.418;2022-07-12T06:45:36;97409.25;;;21.01;45.12
50977;BME280;36992;48.200;12.418;2022-07-12T06:48:04;97406.28;;;21.06;45.08
50977;BME280;36992;48.200;12.418;2022-07-12T06:50:31;97414.19;;;21.08;45.92
50977;BME280;36992;48.200;12.418;2022-07-12T06:52:57;97413.84;;;21.09;45.40
50977;BME280;36992;48.200;12.418;2022-07-12T06:55:24;97415.88;;;21.12;45.15
50977;BME280;36992;48.200;12.418;2022-07-12T06:57:51;97412.00;;;21.13;45.43
50977;BME280;36992;48.200;12.418;2022-07-12T07:00:17;97409.72;;;21.15;44.46
50977;BME280;36992;48.200;12.418;2022-07-12T07:02:44;97403.53;;;21.19;45.07
50977;BME280;36992;48.200;12.418;2022-07-12T07:05:12;97410.84;;;21.27;44.92
50977;BME280;36992;48.200;12.418;2022-07-12T07:07:40;97410.84;;;21.27;44.65
50977;BME280;36992;48.200;12.418;2022-07-12T07:10:07;97413.31;;;21.32;44.57
50977;BME280;36992;48.200;12.418;2022-07-12T07:12:34;97411.84;;;21.35;44.86
50977;BME280;36992;48.200;12.418;2022-07-12T07:15:00;97410.78;;;21.39;44.97
50977;BME280;36992;48.200;12.418;2022-07-12T07:17:27;97414.44;;;21.43;44.32
50977;BME280;36992;48.200;12.418;2022-07-12T07:19:53;97413.41;;;21.48;44.63
50977;BME280;36992;48.200;12.418;2022-07-12T07:22:22;97414.41;;;21.56;44.27
50977;BME280;36992;48.200;12.418;2022-07-12T07:24:48;97405.41;;;21.55;44.55
50977;BME280;36992;48.200;12.418;2022-07-12T07:27:15;97412.56;;;21.60;44.58
50977;BME280;36992;48.200;12.418;2022-07-12T07:29:41;97411.84;;;21.63;44.52
50977;BME280;36992;48.200;12.418;2022-07-12T07:32:25;97409.22;;;21.67;43.84
50977;BME280;36992;48.200;12.418;2022-07-12T07:34:52;97415.28;;;21.73;44.61
50977;BME280;36992;48.200;12.418;2022-07-12T07:37:18;97418.13;;;21.76;44.08
50977;BME280;36992;48.200;12.418;2022-07-12T07:39:46;97414.34;;;21.81;44.45
50977;BME280;36992;48.200;12.418;2022-07-12T07:42:13;97402.22;;;21.82;43.39
50977;BME280;36992;48.200;12.418;2022-07-12T07:44:39;97415.69;;;21.87;43.25
50977;BME280;36992;48.200;12.418;2022-07-12T07:47:05;97418.09;;;21.89;44.24
50977;BME280;36992;48.200;12.418;2022-07-12T07:49:32;97414.28;;;21.93;43.16
50977;BME280;36992;48.200;12.418;2022-07-12T07:51:59;97414.72;;;21.95;43.63
50977;BME280;36992;48.200;12.418;2022-07-12T07:54:25;97410.94;;;22.00;43.48
50977;BME280;36992;48.200;12.418;2022-07-12T07:56:53;97413.06;;;22.07;43.84
50977;BME280;36992;48.200;12.418;2022-07-12T07:59:20;97415.47;;;22.08;43.53
50977;BME280;36992;48.200;12.418;2022-07-12T08:01:46;97412.81;;;22.12;43.63
50977;BME280;36992;48.200;12.418;2022-07-12T08:04:17;97414.88;;;22.15;43.75
50977;BME280;36992;48.200;12.418;2022-07-12T08:06:45;97413.38;;;22.18;42.92
50977;BME280;36992;48.200;12.418;2022-07-12T08:09:12;97418.47;;;22.19;43.15
50977;BME280;36992;48.200;12.418;2022-07-12T08:11:39;97414.72;;;22.24;43.91
50977;BME280;36992;48.200;12.418;2022-07-12T08:14:08;97415.16;;;22.26;43.86
50977;BME280;36992;48.200;12.418;2022-07-12T08:16:35;97418.22;;;22.24;43.84
50977;BME280;36992;48.200;12.418;2022-07-12T08:19:02;97412.75;;;22.24;43.56
50977;BME280;36992;48.200;12.418;2022-07-12T08:21:29;97415.16;;;22.26;42.70
50977;BME280;36992;48.200;12.418;2022-07-12T08:23:55;97408.16;;;22.29;43.30
50977;BME280;36992;48.200;12.418;2022-07-12T08:26:22;97410.19;;;22.32;43.17
50977;BME280;36992;48.200;12.418;2022-07-12T08:28:49;97409.91;;;22.37;43.07
50977;BME280;36992;48.200;12.418;2022-07-12T08:31:17;97409.22;;;22.40;42.67
50977;BME280;36992;48.200;12.418;2022-07-12T08:33:43;97408.50;;;22.43;43.13
50977;BME280;36992;48.200;12.418;2022-07-12T08:36:10;97412.16;;;22.47;42.56
50977;BME280;36992;48.200;12.418;2022-07-12T08:38:37;97418.06;;;22.49;42.81
50977;BME280;36992;48.200;12.418;2022-07-12T08:41:04;97417.41;;;22.53;42.24
50977;BME280;36992;48.200;12.418;2022-07-12T08:43:33;97419.09;;;22.57;42.24
50977;BME280;36992;48.200;12.418;2022-07-12T08:46:04;97411.28;;;22.59;42.11
50977;BME280;36992;48.200;12.418;2022-07-12T08:48:33;97417.66;;;22.63;42.24
50977;BME280;36992;48.200;12.418;2022-07-12T08:51:00;97418.63;;;22.71;41.72
50977;BME280;36992;48.200;12.418;2022-07-12T08:53:27;97418.81;;;22.79;41.15
50977;BME280;36992;48.200;12.418;2022-07-12T08:55:54;97418.16;;;22.85;41.02
50977;BME280;36992;48.200;12.418;2022-07-12T08:58:20;97423.47;;;22.94;40.65
50977;BME280;36992;48.200;12.418;2022-07-12T09:00:47;97420.44;;;22.99;40.93
50977;BME280;36992;48.200;12.418;2022-07-12T09:03:13;97421.34;;;23.03;41.34
50977;BME280;36992;48.200;12.418;2022-07-12T09:05:47;97432.91;;;23.13;41.46
50977;BME280;36992;48.200;12.418;2022-07-12T09:08:14;97434.44;;;23.10;39.82
50977;BME280;36992;48.200;12.418;2022-07-12T09:10:52;97425.84;;;23.12;40.18
50977;BME280;36992;48.200;12.418;2022-07-12T09:13:19;97431.25;;;23.08;40.67
50977;BME280;36992;48.200;12.418;2022-07-12T09:15:45;97436.75;;;23.08;39.46
50977;BME280;36992;48.200;12.418;2022-07-12T09:18:14;97423.81;;;23.09;39.13
50977;BME280;36992;48.200;12.418;2022-07-12T09:20:51;97422.38;;;23.15;39.13
50977;BME280;36992;48.200;12.418;2022-07-12T09:23:18;97428.31;;;23.17;39.05
50977;BME280;36992;48.200;12.418;2022-07-12T09:25:45;97420.56;;;23.23;39.20
50977;BME280;36992;48.200;12.418;2022-07-12T09:28:13;97431.28;;;23.28;39.11
50977;BME280;36992;48.200;12.418;2022-07-12T09:30:47;97425.63;;;23.37;39.35
50977;BME280;36992;48.200;12.418;2022-07-12T09:33:17;97437.03;;;23.39;39.18
50977;BME280;36992;48.200;12.418;2022-07-12T09:36:03;97436.41;;;23.46;38.15
50977;BME280;36992;48.200;12.418;2022-07-12T09:38:34;97425.34;;;23.42;38.30
50977;BME280;36992;48.200;12.418;2022-07-12T09:41:01;97423.81;;;23.44;38.42
50977;BME280;36992;48.200;12.418;2022-07-12T09:43:28;97429.75;;;23.47;38.72
50977;BME280;36992;48.200;12.418;2022-07-12T09:45:55;97427.06;;;23.50;38.58
50977;BME280;36992;48.200;12.418;2022-07-12T09:48:22;97429.97;;;23.57;38.81
50977;BME280;36992;48.200;12.418;2022-07-12T09:50:50;97433.25;;;23.63;36.32
50977;BME280;36992;48.200;12.418;2022-07-12T09:53:21;97435.31;;;23.70;37.43
50977;BME280;36992;48.200;12.418;2022-07-12T09:55:51;97434.19;;;23.71;37.42
50977;BME280;36992;48.200;12.418;2022-07-12T09:58:26;97443.56;;;23.70;37.38
50977;BME280;36992;48.200;12.418;2022-07-12T10:00:53;97435.66;;;23.65;36.27
50977;BME280;36992;48.200;12.418;2022-07-12T10:03:21;97440.34;;;23.64;36.17
50977;BME280;36992;48.200;12.418;2022-07-12T10:05:50;97435.66;;;23.65;36.07
50977;BME280;36992;48.200;12.418;2022-07-12T10:08:17;97433.31;;;23.67;36.49
50977;BME280;36992;48.200;12.418;2022-07-12T10:10:46;97436.63;;;23.76;37.06
50977;BME280;36992;48.200;12.418;2022-07-12T10:13:14;97440.25;;;23.80;36.60
50977;BME280;36992;48.200;12.418;2022-07-12T10:15:41;97440.31;;;23.84;36.63
50977;BME280;36992;48.200;12.418;2022-07-12T10:18:14;97443.28;;;23.95;36.29
50977;BME280;36992;48.200;12.418;2022-07-12T10:20:42;97441.28;;;23.92;35.98
50977;BME280;36992;48.200;12.418;2022-07-12T10:23:32;97437.06;;;23.98;36.46
50977;BME280;36992;48.200;12.418;2022-07-12T10:26:25;97432.00;;;24.00;36.49
50977;BME280;36992;48.200;12.418;2022-07-12T10:29:10;97438.78;;;24.06;36.75
50977;BME280;36992;48.200;12.418;2022-07-12T10:31:46;97439.53;;;24.03;35.47
50977;BME280;36992;48.200;12.418;2022-07-12T10:34:14;97441.69;;;24.14;34.64
50977;BME280;36992;48.200;12.418;2022-07-12T10:37:07;97448.19;;;24.25;36.11
50977;BME280;36992;48.200;12.418;2022-07-12T10:39:34;97450.09;;;24.21;35.20
50977;BME280;36992;48.200;12.418;2022-07-12T10:42:16;97442.41;;;24.30;36.36
50977;BME280;36992;48.200;12.418;2022-07-12T10:44:45;97449.38;;;24.24;34.78
50977;BME280;36992;48.200;12.418;2022-07-12T10:47:15;97442.34;;;24.27;35.44
50977;BME280;36992;48.200;12.418;2022-07-12T10:49:46;97438.06;;;24.29;34.72
50977;BME280;36992;48.200;12.418;2022-07-12T10:52:32;97427.59;;;24.38;36.03
50977;BME280;36992;48.200;12.418;2022-07-12T10:55:18;97428.94;;;24.48;36.07
50977;BME280;36992;48.200;12.418;2022-07-12T10:57:48;97435.63;;;24.47;34.91
50977;BME280;36992;48.200;12.418;2022-07-12T11:00:19;97435.25;;;24.49;33.32
50977;BME280;36992;48.200;12.418;2022-07-12T11:02:48;97435.66;;;24.51;33.55
50977;BME280;36992;48.200;12.418;2022-07-12T11:05:14;97441.19;;;24.51;35.24
50977;BME280;36992;48.200;12.418;2022-07-12T11:07:41;97437.69;;;24.54;34.21
50977;BME280;36992;48.200;12.418;2022-07-12T11:10:11;97436.66;;;24.62;34.97
50977;BME280;36992;48.200;12.418;2022-07-12T11:12:38;97441.44;;;24.65;34.78
50977;BME280;36992;48.200;12.418;2022-07-12T11:15:07;97434.06;;;24.73;34.07
50977;BME280;36992;48.200;12.418;2022-07-12T11:17:34;97431.75;;;24.75;33.90
50977;BME280;36992;48.200;12.418;2022-07-12T11:20:09;97436.59;;;24.82;33.61
50977;BME280;36992;48.200;12.418;2022-07-12T11:22:37;97437.47;;;24.86;33.05
50977;BME280;36992;48.200;12.418;2022-07-12T11:25:06;97441.50;;;24.92;33.06
50977;BME280;36992;48.200;12.418;2022-07-12T11:27:33;97442.78;;;24.99;32.46
50977;BME280;36992;48.200;12.418;2022-07-12T11:30:00;97432.25;;;25.08;33.05
50977;BME280;36992;48.200;12.418;2022-07-12T11:32:36;97432.81;;;25.17;32.97
50977;BME280;36992;48.200;12.418;2022-07-12T11:35:04;97434.38;;;25.18;31.74
50977;BME280;36992;48.200;12.418;2022-07-12T11:37:51;97424.22;;;25.23;33.03
50977;BME280;36992;48.200;12.418;2022-07-12T11:40:22;97424.22;;;25.23;33.27
50977;BME280;36992;48.200;12.418;2022-07-12T11:42:55;97416.69;;;25.19;32.15
50977;BME280;36992;48.200;12.418;2022-07-12T11:45:24;97424.22;;;25.23;31.82
50977;BME280;36992;48.200;12.418;2022-07-12T11:47:52;97424.25;;;25.26;31.63
50977;BME280;36992;48.200;12.418;2022-07-12T11:50:19;97414.06;;;25.30;31.18
50977;BME280;36992;48.200;12.418;2022-07-12T11:52:45;97410.97;;;25.36;32.17
50977;BME280;36992;48.200;12.418;2022-07-12T11:55:12;97417.75;;;25.42;32.10
50977;BME280;36992;48.200;12.418;2022-07-12T11:57:38;97418.25;;;25.48;31.65
50977;BME280;36992;48.200;12.418;2022-07-12T12:00:19;97417.59;;;25.58;32.75
50977;BME280;36992;48.200;12.418;2022-07-12T12:02:52;97408.59;;;25.61;32.92
50977;BME280;36992;48.200;12.418;2022-07-12T12:05:19;97417.63;;;25.62;31.66
50977;BME280;36992;48.200;12.418;2022-07-12T12:07:46;97415.00;;;25.69;31.50
50977;BME280;36992;48.200;12.418;2022-07-12T12:10:14;97417.03;;;25.76;31.71
50977;BME280;36992;48.200;12.418;2022-07-12T12:12:43;97415.84;;;25.77;31.41
50977;BME280;36992;48.200;12.418;2022-07-12T12:15:12;97418.59;;;25.77;31.25
50977;BME280;36992;48.200;12.418;2022-07-12T12:17:43;97418.66;;;25.80;30.89
50977;BME280;36992;48.200;12.418;2022-07-12T12:20:15;97407.56;;;25.77;30.98
50977;BME280;36992;48.200;12.418;2022-07-12T12:22:42;97404.41;;;25.75;30.45
50977;BME280;36992;48.200;12.418;2022-07-12T12:25:08;97409.19;;;25.78;30.88
50977;BME280;36992;48.200;12.418;2022-07-12T12:27:43;97410.84;;;25.86;31.52
50977;BME280;36992;48.200;12.418;2022-07-12T12:30:10;97410.06;;;25.89;30.83
50977;BME280;36992;48.200;12.418;2022-07-12T12:32:45;97409.41;;;25.99;31.99
50977;BME280;36992;48.200;12.418;2022-07-12T12:35:14;97409.41;;;25.99;29.17
50977;BME280;36992;48.200;12.418;2022-07-12T12:37:40;97410.25;;;26.04;28.53
50977;BME280;36992;48.200;12.418;2022-07-12T12:40:08;97416.56;;;26.08;28.61
50977;BME280;36992;48.200;12.418;2022-07-12T12:42:35;97410.31;;;26.11;28.11
50977;BME280;36992;48.200;12.418;2022-07-12T12:45:02;97408.41;;;26.15;28.55
50977;BME280;36992;48.200;12.418;2022-07-12T12:47:28;97410.78;;;26.20;28.20
50977;BME280;36992;48.200;12.418;2022-07-12T12:49:59;97408.91;;;26.24;28.35
50977;BME280;36992;48.200;12.418;2022-07-12T12:52:29;97399.50;;;26.33;29.88
50977;BME280;36992;48.200;12.418;2022-07-12T12:54:56;97409.78;;;26.36;28.53